Time;durP1;ratioP1;P1;durP2;ratioP2;P2;SDS_P1;SDS_P2;PMS_P1;PMS_P2;Temp;Humidity;BMP_temperature;BMP_pressure;BME280_temperature;BME280_humidity;BME280_pressure;Samples;Min_cycle;Max_cycle;Signal;HPM_P1;HPM_P2
2022/08/12 00:44:36;;;;;;;;;;;15.20;99.90;;;;;;4148659;28;20020;-55
2022/08/12 00:46:43;;;;;;;;;;;15.30;99.90;;;;;;4148556;28;20289;-55
2022/08/12 00:48:46;;;;;;;;;;;15.20;99.90;;;;;;4148719;28;19925;-56
2022/08/12 00:50:51;;;;;;;;;;;15.00;99.90;;;;;;4148681;28;20271;-56
2022/08/12 00:52:53;;;;;;;;;;;15.10;99.90;;;;;;4148454;28;19945;-55
2022/08/12 00:54:58;;;;;;;;;;;15.20;99.90;;;;;;4148524;28;20049;-57
2022/08/12 00:57:05;;;;;;;;;;;15.20;99.90;;;;;;4148631;28;19922;-56
2022/08/12 00:59:08;;;;;;;;;;;15.20;99.90;;;;;;4148274;28;20370;-56
2022/08/12 01:01:09;;;;;;;;;;;15.30;99.90;;;;;;4148604;28;19921;-56
2022/08/12 01:03:14;;;;;;;;;;;15.30;99.90;;;;;;4148534;28;19976;-56
2022/08/12 01:12:28;;;;;;;;;;;15.30;99.90;;;;;;4132191;28;19964;-56
2022/08/12 01:14:30;;;;;;;;;;;15.30;99.90;;;;;;4140751;28;20316;-56
2022/08/12 01:16:33;;;;;;;;;;;15.30;99.90;;;;;;4148560;28;19933;-56
2022/08/12 01:18:37;;;;;;;;;;;15.20;99.90;;;;;;4148087;28;19975;-56
2022/08/12 01:20:48;;;;;;;;;;;15.10;99.90;;;;;;4148321;28;19953;-55
2022/08/12 01:23:26;;;;;;;;;;;15.10;99.90;;;;;;4131098;28;19921;-57
2022/08/12 01:25:31;;;;;;;;;;;15.20;99.90;;;;;;4066149;29;19923;-56
2022/08/12 01:27:34;;;;;;;;;;;15.20;99.90;;;;;;4114988;28;20008;-56
2022/08/12 01:29:40;;;;;;;;;;;15.10;99.90;;;;;;4147881;28;19925;-56
2022/08/12 01:31:44;;;;;;;;;;;15.10;99.90;;;;;;4148166;28;19941;-57
2022/08/12 01:33:54;;;;;;;;;;;15.20;99.90;;;;;;4148044;28;20312;-56
2022/08/12 01:35:59;;;;;;;;;;;15.20;99.90;;;;;;4147270;28;19921;-56
2022/08/12 01:38:10;;;;;;;;;;;15.30;99.90;;;;;;4147767;28;19935;-55
2022/08/12 01:40:15;;;;;;;;;;;15.00;99.90;;;;;;4130307;28;20032;-56
2022/08/12 01:42:47;;;;;;;;;;;15.00;99.90;;;;;;4142500;28;19921;-56
2022/08/12 01:44:51;;;;;;;;;;;15.00;99.90;;;;;;4147789;28;20349;-56
2022/08/12 01:47:02;;;;;;;;;;;14.90;99.90;;;;;;4147864;28;19925;-56
2022/08/12 01:49:07;;;;;;;;;;;14.90;99.90;;;;;;4147555;28;20297;-56
2022/08/12 01:51:25;;;;;;;;;;;14.80;99.90;;;;;;4148092;28;19976;-56
2022/08/12 01:53:54;;;;;;;;;;;14.90;99.90;;;;;;4131551;28;19922;-56
2022/08/12 01:55:57;;;;;;;;;;;15.00;99.90;;;;;;4139903;28;20300;-56
2022/08/12 01:58:02;;;;;;;;;;;15.00;99.90;;;;;;4147526;28;19925;-57
2022/08/12 02:00:06;;;;;;;;;;;15.00;99.90;;;;;;4131485;28;20651;-55
2022/08/12 02:02:10;;;;;;;;;;;15.10;99.90;;;;;;4138274;28;20019;-56
2022/08/12 02:12:00;;;;;;;;;;;15.00;99.90;;;;;;4147247;28;19975;-56
2022/08/12 02:14:23;;;;;;;;;;;15.00;99.90;;;;;;4144618;28;19987;-57
2022/08/12 02:16:44;;;;;;;;;;;14.90;99.90;;;;;;4133771;28;20337;-57
2022/08/12 02:18:51;;;;;;;;;;;14.80;99.90;;;;;;4147314;28;19931;-56
2022/08/12 02:21:12;;;;;;;;;;;14.80;99.90;;;;;;4147403;28;20330;-56
2022/08/12 02:23:14;;;;;;;;;;;14.90;99.90;;;;;;4147445;28;19921;-56
2022/08/12 02:25:40;;;;;;;;;;;15.00;99.90;;;;;;4129899;28;19964;-56
2022/08/12 02:27:46;;;;;;;;;;;15.10;99.90;;;;;;4136964;28;20337;-57
2022/08/12 02:29:48;;;;;;;;;;;15.10;99.90;;;;;;4147488;28;19922;-55
2022/08/12 02:31:51;;;;;;;;;;;15.10;99.90;;;;;;4147352;28;20244;-56
2022/08/12 02:33:55;;;;;;;;;;;15.10;99.90;;;;;;4147240;28;20412;-56
2022/08/12 02:35:58;;;;;;;;;;;15.10;99.90;;;;;;4146999;28;19922;-56
2022/08/12 02:38:05;;;;;;;;;;;15.10;99.90;;;;;;4147136;28;19921;-56
2022/08/12 02:40:07;;;;;;;;;;;15.00;99.90;;;;;;4129798;28;20517;-56
2022/08/12 02:42:10;;;;;;;;;;;14.90;99.90;;;;;;4147328;28;20020;-57
2022/08/12 02:44:14;;;;;;;;;;;14.90;99.90;;;;;;4147322;28;20048;-56
2022/08/12 02:46:27;;;;;;;;;;;15.00;99.90;;;;;;4147471;28;19921;-57
2022/08/12 02:48:33;;;;;;;;;;;15.10;99.90;;;;;;4147223;28;20293;-55
2022/08/12 02:50:38;;;;;;;;;;;15.10;99.90;;;;;;4147461;28;19921;-56
2022/08/12 02:52:41;;;;;;;;;;;15.10;99.90;;;;;;4150383;28;19973;-55
2022/08/12 02:54:44;;;;;;;;;;;15.10;99.90;;;;;;4150500;28;19960;-56
2022/08/12 02:56:46;;;;;;;;;;;15.10;99.90;;;;;;4150339;28;20300;-57
2022/08/12 02:58:51;;;;;;;;;;;15.10;99.90;;;;;;4150159;28;19979;-56
2022/08/12 03:00:54;;;;;;;;;;;15.10;99.90;;;;;;4150479;28;20140;-56
2022/08/12 03:02:59;;;;;;;;;;;15.20;99.90;;;;;;4150261;28;19943;-56
2022/08/12 03:05:02;;;;;;;;;;;15.20;99.90;;;;;;4133032;28;20432;-56
2022/08/12 03:07:16;;;;;;;;;;;15.20;99.90;;;;;;4134287;28;19949;-56
2022/08/12 03:09:20;;;;;;;;;;;15.20;99.90;;;;;;4125301;28;19922;-56
2022/08/12 03:11:28;;;;;;;;;;;15.10;99.90;;;;;;4150195;28;20392;-56
2022/08/12 03:13:32;;;;;;;;;;;15.00;99.90;;;;;;4134031;28;19921;-56
2022/08/12 03:15:34;;;;;;;;;;;15.10;99.90;;;;;;4141574;28;20012;-56
2022/08/12 03:17:42;;;;;;;;;;;15.10;99.90;;;;;;4150018;28;20408;-56
2022/08/12 03:19:45;;;;;;;;;;;15.10;99.90;;;;;;4132480;28;19932;-56
2022/08/12 03:22:11;;;;;;;;;;;15.20;99.90;;;;;;4150151;28;19931;-56
2022/08/12 03:24:15;;;;;;;;;;;15.20;99.90;;;;;;4149897;28;20286;-56
2022/08/12 03:26:19;;;;;;;;;;;15.10;99.90;;;;;;4150097;28;19968;-56
2022/08/12 03:30:43;;;;;;;;;;;15.00;99.90;;;;;;4132032;28;19972;-56
2022/08/12 03:32:46;;;;;;;;;;;15.00;99.90;;;;;;4149970;28;19928;-57
2022/08/12 03:34:49;;;;;;;;;;;15.00;99.90;;;;;;4149845;28;20352;-56
2022/08/12 03:36:53;;;;;;;;;;;15.00;99.90;;;;;;4149146;28;19925;-56
2022/08/12 03:41:33;;;;;;;;;;;15.00;99.90;;;;;;4134915;28;20452;-55
2022/08/12 04:00:23;;;;;;;;;;;15.20;99.90;;;;;;4133326;28;19952;-56
2022/08/12 04:02:25;;;;;;;;;;;15.30;99.90;;;;;;4133145;28;19921;-56
2022/08/12 04:04:33;;;;;;;;;;;15.40;99.90;;;;;;4149045;28;19925;-56
2022/08/12 04:06:40;;;;;;;;;;;15.40;99.90;;;;;;4141776;28;19925;-56
2022/08/12 04:08:43;;;;;;;;;;;15.40;99.90;;;;;;4133366;28;19980;-57
2022/08/12 04:13:17;;;;;;;;;;;15.50;99.90;;;;;;4132926;28;19925;-56
2022/08/12 04:15:24;;;;;;;;;;;15.50;99.90;;;;;;4133473;28;19928;-56
2022/08/12 04:17:27;;;;;;;;;;;15.60;99.90;;;;;;4133137;28;19922;-57
2022/08/12 04:19:29;;;;;;;;;;;15.60;99.90;;;;;;4139843;28;19925;-56
2022/08/12 04:21:32;;;;;;;;;;;15.60;99.90;;;;;;4149075;28;19921;-56
2022/08/12 04:23:34;;;;;;;;;;;15.60;99.90;;;;;;4154924;28;19925;-56
2022/08/12 04:25:38;;;;;;;;;;;15.60;99.90;;;;;;4140370;28;19925;-56
2022/08/12 04:27:44;;;;;;;;;;;15.60;99.90;;;;;;4153426;28;19925;-55
2022/08/12 04:29:46;;;;;;;;;;;15.30;99.90;;;;;;4147933;28;19925;-57
2022/08/12 04:32:08;;;;;;;;;;;15.20;99.90;;;;;;4156300;28;19928;-56
2022/08/12 04:34:10;;;;;;;;;;;15.20;99.90;;;;;;4165287;28;19971;-56
2022/08/12 04:36:12;;;;;;;;;;;15.30;99.90;;;;;;4149573;28;19925;-55
2022/08/12 04:38:15;;;;;;;;;;;15.50;99.90;;;;;;4143160;28;19992;-55
2022/08/12 04:40:18;;;;;;;;;;;15.40;99.90;;;;;;4148701;28;19922;-56
2022/08/12 04:42:29;;;;;;;;;;;15.40;99.90;;;;;;4134719;28;19921;-56
2022/08/12 04:44:31;;;;;;;;;;;15.40;99.90;;;;;;4132273;28;19921;-57
2022/08/12 04:46:33;;;;;;;;;;;15.30;99.90;;;;;;4132654;28;19926;-56
2022/08/12 04:48:35;;;;;;;;;;;15.30;99.90;;;;;;4135990;28;20339;-56
2022/08/12 04:50:38;;;;;;;;;;;15.20;99.90;;;;;;4160366;28;19925;-56
2022/08/12 04:52:40;;;;;;;;;;;15.20;99.90;;;;;;4165044;28;19924;-56
2022/08/12 04:54:43;;;;;;;;;;;15.20;99.90;;;;;;4154801;28;19926;-56
2022/08/12 04:56:45;;;;;;;;;;;15.30;99.90;;;;;;4148734;28;19933;-56
2022/08/12 04:59:04;;;;;;;;;;;15.30;99.90;;;;;;4148677;28;19921;-57
2022/08/12 05:01:06;;;;;;;;;;;15.30;99.90;;;;;;4148448;28;19925;-56
2022/08/12 05:03:08;;;;;;;;;;;15.20;99.90;;;;;;4148586;28;20333;-56
2022/08/12 05:05:23;;;;;;;;;;;15.30;99.90;;;;;;4148385;28;19921;-56
2022/08/12 05:07:26;;;;;;;;;;;15.20;99.90;;;;;;4124391;28;20016;-56
2022/08/12 05:09:28;;;;;;;;;;;15.10;99.90;;;;;;4148337;28;19921;-56
2022/08/12 05:11:50;;;;;;;;;;;15.20;99.90;;;;;;4148441;28;19932;-56
2022/08/12 05:13:59;;;;;;;;;;;15.40;99.90;;;;;;4147345;28;19921;-56
2022/08/12 05:16:01;;;;;;;;;;;15.40;99.90;;;;;;4148185;28;20325;-56
2022/08/12 05:18:06;;;;;;;;;;;15.50;99.90;;;;;;4148578;28;20274;-57
2022/08/12 05:20:21;;;;;;;;;;;15.60;99.90;;;;;;4147932;28;19921;-56
2022/08/12 05:22:24;;;;;;;;;;;15.60;99.90;;;;;;4148026;28;19921;-57
2022/08/12 05:24:25;;;;;;;;;;;15.70;99.90;;;;;;4147805;28;19929;-56
2022/08/12 05:26:28;;;;;;;;;;;15.80;99.90;;;;;;4147923;28;19991;-55
2022/08/12 05:28:30;;;;;;;;;;;16.00;99.90;;;;;;4148107;28;20345;-56
2022/08/12 05:30:33;;;;;;;;;;;15.90;99.90;;;;;;4147942;28;20416;-56
2022/08/12 05:32:35;;;;;;;;;;;15.90;99.90;;;;;;4147858;28;20329;-55
2022/08/12 05:34:37;;;;;;;;;;;16.00;99.90;;;;;;4148256;28;19925;-56
2022/08/12 05:36:42;;;;;;;;;;;15.90;99.90;;;;;;4144218;28;19956;-56
2022/08/12 05:38:57;;;;;;;;;;;15.90;99.90;;;;;;4164120;28;19948;-55
2022/08/12 05:41:00;;;;;;;;;;;15.90;99.90;;;;;;4164202;28;19921;-55
2022/08/12 05:43:02;;;;;;;;;;;16.10;99.90;;;;;;4156415;28;19924;-56
2022/08/12 05:45:05;;;;;;;;;;;16.20;99.90;;;;;;4163948;28;19928;-56
2022/08/12 05:47:07;;;;;;;;;;;16.40;99.90;;;;;;4164012;28;19925;-57
2022/08/12 05:49:09;;;;;;;;;;;16.70;99.90;;;;;;4151610;28;19928;-57
2022/08/12 05:51:11;;;;;;;;;;;17.00;99.90;;;;;;4147607;28;19925;-57
2022/08/12 05:53:13;;;;;;;;;;;17.20;99.90;;;;;;4147719;28;19968;-57
2022/08/12 05:55:15;;;;;;;;;;;17.40;99.90;;;;;;4147343;28;19921;-56
2022/08/12 05:57:17;;;;;;;;;;;17.50;99.90;;;;;;4155682;28;19980;-56
2022/08/12 05:59:20;;;;;;;;;;;17.50;99.90;;;;;;4163835;28;19921;-56
2022/08/12 06:01:24;;;;;;;;;;;17.50;99.90;;;;;;4156589;28;19953;-57
2022/08/12 06:03:46;;;;;;;;;;;17.50;99.90;;;;;;4160905;28;19929;-56
2022/08/12 06:05:48;;;;;;;;;;;17.50;99.90;;;;;;4171453;28;20005;-56
2022/08/12 06:07:56;;;;;;;;;;;17.50;99.90;;;;;;4137649;28;19934;-56
2022/08/12 06:10:03;;;;;;;;;;;17.50;99.90;;;;;;4147280;28;19926;-57
2022/08/12 06:12:05;;;;;;;;;;;17.70;99.90;;;;;;4156227;28;19925;-57
2022/08/12 06:14:07;;;;;;;;;;;17.90;99.90;;;;;;4159924;28;19925;-57
2022/08/12 06:16:13;;;;;;;;;;;18.00;99.90;;;;;;4180810;28;20016;-57
2022/08/12 06:18:15;;;;;;;;;;;18.20;99.90;;;;;;4164884;28;20460;-56
2022/08/12 06:20:17;;;;;;;;;;;18.40;99.90;;;;;;4157764;28;19925;-58
2022/08/12 06:22:27;;;;;;;;;;;18.70;99.90;;;;;;4178794;28;19920;-57
2022/08/12 06:24:29;;;;;;;;;;;19.10;99.90;;;;;;4150375;28;20282;-58
2022/08/12 06:26:33;;;;;;;;;;;19.40;99.90;;;;;;4161664;28;19928;-57
2022/08/12 06:28:35;;;;;;;;;;;19.70;99.90;;;;;;4164656;28;19927;-57
2022/08/12 06:30:37;;;;;;;;;;;20.10;99.90;;;;;;4168111;28;19925;-57
2022/08/12 06:32:43;;;;;;;;;;;20.20;99.90;;;;;;4163303;28;19925;-57
2022/08/12 06:34:55;;;;;;;;;;;20.30;99.90;;;;;;4180181;28;19925;-57
2022/08/12 06:37:17;;;;;;;;;;;20.30;99.90;;;;;;4162816;28;20450;-57
2022/08/12 06:39:22;;;;;;;;;;;20.60;99.90;;;;;;4157354;28;19927;-57
2022/08/12 06:44:03;;;;;;;;;;;20.50;99.90;;;;;;4155733;28;19964;-57
2022/08/12 06:46:09;;;;;;;;;;;20.30;99.90;;;;;;4136519;28;19976;-57
2022/08/12 06:48:11;;;;;;;;;;;20.20;99.90;;;;;;4163386;28;19931;-57
2022/08/12 06:50:17;;;;;;;;;;;20.10;99.90;;;;;;4147738;28;20384;-59
2022/08/12 06:52:23;;;;;;;;;;;20.00;99.90;;;;;;4147119;28;19976;-57
2022/08/12 06:54:25;;;;;;;;;;;20.00;99.90;;;;;;4147142;28;20023;-57
2022/08/12 06:56:31;;;;;;;;;;;20.20;99.90;;;;;;4129603;28;19922;-57
2022/08/12 06:58:54;;;;;;;;;;;20.70;99.90;;;;;;4152624;28;20008;-57
2022/08/12 07:00:57;;;;;;;;;;;20.90;99.90;;;;;;4129686;28;19934;-58
2022/08/12 07:02:59;;;;;;;;;;;21.30;99.90;;;;;;4146943;28;19944;-57
2022/08/12 07:05:01;;;;;;;;;;;21.40;99.90;;;;;;4147154;28;19928;-59
2022/08/12 07:07:04;;;;;;;;;;;21.70;99.90;;;;;;4147049;28;20325;-57
2022/08/12 07:09:06;;;;;;;;;;;21.90;99.90;;;;;;4147048;28;20016;-58
2022/08/12 07:11:12;;;;;;;;;;;22.30;99.90;;;;;;4146995;28;19933;-58
2022/08/12 07:13:14;;;;;;;;;;;22.80;99.90;;;;;;4129765;28;19922;-58
2022/08/12 07:15:17;;;;;;;;;;;23.30;99.90;;;;;;4146916;28;19931;-57
2022/08/12 07:17:19;;;;;;;;;;;23.50;99.90;;;;;;4146660;28;19921;-58
2022/08/12 07:19:21;;;;;;;;;;;23.80;99.90;;;;;;4146875;28;20396;-57
2022/08/12 07:21:23;;;;;;;;;;;24.20;99.60;;;;;;4146898;28;20436;-57
2022/08/12 07:23:26;;;;;;;;;;;24.30;99.90;;;;;;4146928;28;19921;-58
2022/08/12 07:25:33;;;;;;;;;;;24.10;99.90;;;;;;4147096;28;19925;-58
2022/08/12 07:27:42;;;;;;;;;;;24.30;99.90;;;;;;4146918;28;19928;-58
2022/08/12 07:29:46;;;;;;;;;;;24.30;99.50;;;;;;4129831;28;19960;-57
2022/08/12 07:32:05;;;;;;;;;;;24.30;99.80;;;;;;4145796;28;20329;-58
2022/08/12 07:34:08;;;;;;;;;;;24.80;99.70;;;;;;4146825;28;19969;-58
2022/08/12 07:36:12;;;;;;;;;;;25.20;98.90;;;;;;4152557;28;19932;-58
2022/08/12 07:38:24;;;;;;;;;;;25.30;98.00;;;;;;4166149;28;19928;-58
2022/08/12 07:40:30;;;;;;;;;;;25.20;98.20;;;;;;4150267;28;19925;-58
2022/08/12 07:42:32;;;;;;;;;;;25.50;98.90;;;;;;4149668;28;19925;-58
2022/08/12 07:44:34;;;;;;;;;;;25.30;97.80;;;;;;4149830;28;20378;-58
2022/08/12 07:46:42;;;;;;;;;;;24.80;97.00;;;;;;4149526;28;20386;-59
2022/08/12 07:48:47;;;;;;;;;;;24.80;97.60;;;;;;4149728;28;20869;-58
2022/08/12 07:50:50;;;;;;;;;;;25.00;97.50;;;;;;4149825;28;19921;-58
2022/08/12 07:52:52;;;;;;;;;;;25.10;98.00;;;;;;4149599;28;20016;-59
2022/08/12 07:54:53;;;;;;;;;;;25.20;98.70;;;;;;4149587;28;19921;-58
2022/08/12 07:56:56;;;;;;;;;;;25.20;97.10;;;;;;4149477;28;19933;-58
2022/08/12 07:58:59;;;;;;;;;;;25.40;97.80;;;;;;4149494;28;19943;-58
2022/08/12 08:01:03;;;;;;;;;;;25.40;96.50;;;;;;4149803;28;19921;-58
2022/08/12 08:03:07;;;;;;;;;;;25.60;97.40;;;;;;4131892;28;19926;-57
2022/08/12 08:05:09;;;;;;;;;;;26.30;96.90;;;;;;4149579;28;20002;-58
2022/08/12 08:07:12;;;;;;;;;;;26.10;95.50;;;;;;4131980;28;20409;-57
2022/08/12 08:09:15;;;;;;;;;;;26.20;96.30;;;;;;4149373;28;19922;-58
2022/08/12 08:13:39;;;;;;;;;;;26.30;95.80;;;;;;4149130;28;19925;-57
2022/08/12 08:15:44;;;;;;;;;;;26.10;95.80;;;;;;4149443;28;19971;-57
2022/08/12 08:18:05;;;;;;;;;;;25.90;95.80;;;;;;4149060;28;20293;-57
2022/08/12 08:20:09;;;;;;;;;;;26.10;95.90;;;;;;4149351;28;20415;-57
2022/08/12 08:22:11;;;;;;;;;;;26.70;95.60;;;;;;4149201;28;19960;-59
2022/08/12 08:24:13;;;;;;;;;;;27.10;94.60;;;;;;4149089;28;19944;-59
2022/08/12 08:26:15;;;;;;;;;;;27.00;94.40;;;;;;4149037;28;19953;-58
2022/08/12 08:28:17;;;;;;;;;;;26.80;94.50;;;;;;4149039;28;19964;-57
2022/08/12 08:30:19;;;;;;;;;;;26.90;93.80;;;;;;4148885;28;19922;-58
2022/08/12 08:32:23;;;;;;;;;;;27.10;93.90;;;;;;4154132;28;20012;-58
2022/08/12 08:34:25;;;;;;;;;;;26.80;91.90;;;;;;4165361;28;20023;-57
2022/08/12 08:36:47;;;;;;;;;;;26.50;93.40;;;;;;4170384;28;20434;-57
2022/08/12 08:38:49;;;;;;;;;;;26.60;93.40;;;;;;4165320;28;19921;-58
2022/08/12 08:43:39;;;;;;;;;;;26.10;93.70;;;;;;4148951;28;19925;-58
2022/08/12 08:45:47;;;;;;;;;;;26.00;93.40;;;;;;4149051;28;19925;-59
2022/08/12 08:47:50;;;;;;;;;;;26.70;93.80;;;;;;4147852;28;20786;-58
2022/08/12 08:49:53;;;;;;;;;;;26.90;93.80;;;;;;4148210;28;20012;-59
2022/08/12 08:51:55;;;;;;;;;;;26.80;92.60;;;;;;4163644;28;19971;-58
2022/08/12 08:53:57;;;;;;;;;;;26.50;91.50;;;;;;4148503;28;20364;-58
2022/08/12 08:55:59;;;;;;;;;;;26.40;91.70;;;;;;4148540;28;19944;-58
2022/08/12 08:58:07;;;;;;;;;;;26.30;91.70;;;;;;4151875;28;19928;-58
2022/08/12 09:00:13;;;;;;;;;;;26.10;90.70;;;;;;4160286;28;19925;-56
2022/08/12 09:02:16;;;;;;;;;;;26.00;91.30;;;;;;4151997;28;20592;-57
2022/08/12 09:04:19;;;;;;;;;;;25.90;91.20;;;;;;4149750;28;20089;-56
2022/08/12 09:06:41;;;;;;;;;;;26.20;92.40;;;;;;4148838;28;19922;-57
2022/08/12 09:08:54;;;;;;;;;;;26.30;91.10;;;;;;4148261;28;19967;-57
2022/08/12 09:13:26;;;;;;;;;;;26.20;91.30;;;;;;4153435;28;20384;-56
2022/08/12 09:13:38;;;;;;;;;;;26.10;91.30;;;;;;4152910;28;20407;-57
2022/08/12 09:16:01;;;;;;;;;;;26.20;91.50;;;;;;4160562;28;20013;-57
2022/08/12 09:18:04;;;;;;;;;;;26.10;91.80;;;;;;4158497;28;20308;-58
2022/08/12 09:20:14;;;;;;;;;;;26.10;91.90;;;;;;4162829;28;19925;-56
2022/08/12 09:22:16;;;;;;;;;;;25.90;91.80;;;;;;4149465;28;19948;-57
2022/08/12 09:24:19;;;;;;;;;;;26.00;91.80;;;;;;4164372;28;19921;-57
2022/08/12 09:26:21;;;;;;;;;;;25.90;92.00;;;;;;4159492;28;20372;-57
2022/08/12 09:28:31;;;;;;;;;;;25.90;92.80;;;;;;4168950;28;19925;-57
2022/08/12 09:30:34;;;;;;;;;;;25.80;92.60;;;;;;4162503;28;20395;-56
2022/08/12 09:32:50;;;;;;;;;;;25.90;92.60;;;;;;4149778;28;19931;-58
2022/08/12 09:35:06;;;;;;;;;;;25.60;92.60;;;;;;4152703;28;20316;-57
2022/08/12 09:37:25;;;;;;;;;;;25.70;93.10;;;;;;4160165;28;19932;-57
2022/08/12 09:39:28;;;;;;;;;;;25.60;92.60;;;;;;4151203;28;19947;-58
2022/08/12 09:45:21;;;;;;;;;;;25.60;92.00;;;;;;4150392;28;20389;-57
2022/08/12 09:47:12;;;;;;;;;;;26.20;92.10;;;;;;4160685;28;20662;-58
2022/08/12 09:49:14;;;;;;;;;;;26.00;91.30;;;;;;4156006;28;19956;-57
2022/08/12 09:51:19;;;;;;;;;;;25.70;91.50;;;;;;4134313;28;19929;-57
2022/08/12 09:53:24;;;;;;;;;;;25.90;92.70;;;;;;4143029;28;20369;-57
2022/08/12 09:55:40;;;;;;;;;;;26.30;91.20;;;;;;4130445;28;19929;-58
2022/08/12 09:58:01;;;;;;;;;;;26.20;91.00;;;;;;4134706;28;19987;-57
2022/08/12 10:00:24;;;;;;;;;;;26.00;91.20;;;;;;4137947;28;19926;-57
2022/08/12 10:02:29;;;;;;;;;;;25.90;91.50;;;;;;4131343;28;20377;-57
2022/08/12 10:04:47;;;;;;;;;;;25.90;92.00;;;;;;4140464;28;20385;-56
2022/08/12 10:06:52;;;;;;;;;;;26.10;92.10;;;;;;4146585;28;19975;-58
2022/08/12 10:08:56;;;;;;;;;;;26.20;92.40;;;;;;4132338;28;19969;-57
2022/08/12 10:15:43;;;;;;;;;;;25.90;93.50;;;;;;4149172;28;20020;-56
2022/08/12 10:18:04;;;;;;;;;;;25.90;93.70;;;;;;4134460;28;19976;-56
2022/08/12 10:20:08;;;;;;;;;;;25.80;92.70;;;;;;4133375;28;20427;-56
2022/08/12 10:22:14;;;;;;;;;;;25.70;92.80;;;;;;4144556;28;19930;-58
2022/08/12 10:24:20;;;;;;;;;;;25.50;92.50;;;;;;4138305;28;20522;-57
2022/08/12 10:31:04;;;;;;;;;;;25.90;92.40;;;;;;4147389;28;19925;-57
2022/08/12 10:33:06;;;;;;;;;;;26.00;91.90;;;;;;4137019;28;19972;-57
2022/08/12 10:35:19;;;;;;;;;;;25.70;91.00;;;;;;4125381;28;20303;-57
2022/08/12 10:37:21;;;;;;;;;;;25.80;91.60;;;;;;4145514;28;20396;-57
2022/08/12 10:39:44;;;;;;;;;;;26.30;92.30;;;;;;4146372;28;19922;-57
2022/08/12 10:44:30;;;;;;;;;;;27.50;92.00;;;;;;4130804;28;19921;-58
2022/08/12 10:46:33;;;;;;;;;;;27.20;91.50;;;;;;4131162;28;19928;-58
2022/08/12 10:48:35;;;;;;;;;;;26.90;90.70;;;;;;4132906;28;19969;-57
2022/08/12 10:50:36;;;;;;;;;;;26.80;90.70;;;;;;4145893;28;19930;-58
2022/08/12 10:52:59;;;;;;;;;;;27.10;92.00;;;;;;4149340;28;20346;-57
2022/08/12 10:55:01;;;;;;;;;;;27.60;91.90;;;;;;4160961;28;20369;-57
2022/08/12 10:57:03;;;;;;;;;;;27.40;90.20;;;;;;4150452;28;20435;-57
2022/08/12 10:59:05;;;;;;;;;;;27.50;91.60;;;;;;4163569;28;19927;-57
2022/08/12 11:01:11;;;;;;;;;;;27.40;90.80;;;;;;4161807;28;19927;-57
2022/08/12 11:03:35;;;;;;;;;;;27.50;91.00;;;;;;4168256;28;20337;-57
2022/08/12 11:05:58;;;;;;;;;;;27.40;90.10;;;;;;4150647;28;20457;-57
2022/08/12 11:08:20;;;;;;;;;;;27.30;91.50;;;;;;4155153;28;19929;-57
2022/08/12 11:10:39;;;;;;;;;;;27.60;91.30;;;;;;4147242;28;19921;-57
2022/08/12 11:12:45;;;;;;;;;;;27.60;90.60;;;;;;4165686;28;19931;-58
2022/08/12 11:14:59;;;;;;;;;;;27.60;91.20;;;;;;4153038;28;19968;-57
2022/08/12 11:17:02;;;;;;;;;;;27.50;90.40;;;;;;4150147;28;19921;-57
2022/08/12 11:19:25;;;;;;;;;;;27.80;90.40;;;;;;4150895;28;20337;-58
2022/08/12 11:21:27;;;;;;;;;;;27.70;91.10;;;;;;4156265;28;20139;-58
2022/08/12 11:23:49;;;;;;;;;;;28.00;91.10;;;;;;4161789;28;19956;-57
2022/08/12 11:25:54;;;;;;;;;;;28.00;90.20;;;;;;4161945;28;20280;-57
2022/08/12 11:27:59;;;;;;;;;;;28.00;89.50;;;;;;4154029;28;19921;-58
2022/08/12 11:30:00;;;;;;;;;;;28.10;90.50;;;;;;4155216;28;19999;-57
2022/08/12 11:32:07;;;;;;;;;;;28.50;89.50;;;;;;4157983;28;19976;-57
2022/08/12 11:34:10;;;;;;;;;;;28.20;90.10;;;;;;4143317;28;19968;-58
2022/08/12 11:36:32;;;;;;;;;;;28.30;88.90;;;;;;4153688;28;20279;-57
2022/08/12 11:38:39;;;;;;;;;;;28.50;88.40;;;;;;4163458;28;20284;-57
2022/08/12 11:40:42;;;;;;;;;;;28.40;89.70;;;;;;4145452;28;19929;-57
2022/08/12 11:42:44;;;;;;;;;;;28.60;86.50;;;;;;4153751;28;19932;-57
2022/08/12 11:44:47;;;;;;;;;;;28.40;88.80;;;;;;4149216;28;19932;-56
2022/08/12 11:46:50;;;;;;;;;;;28.50;86.90;;;;;;4149975;28;20456;-57
2022/08/12 11:48:53;;;;;;;;;;;28.60;88.50;;;;;;4157689;28;20373;-56
2022/08/12 11:50:55;;;;;;;;;;;28.80;87.50;;;;;;4148302;28;19932;-56
2022/08/12 11:52:57;;;;;;;;;;;28.80;86.40;;;;;;4145618;28;19928;-57
2022/08/12 11:54:59;;;;;;;;;;;28.80;89.30;;;;;;4137865;28;20020;-58
2022/08/12 11:57:01;;;;;;;;;;;28.40;86.70;;;;;;4149328;28;19922;-57
2022/08/12 11:59:23;;;;;;;;;;;28.40;88.60;;;;;;4148463;28;20304;-58
2022/08/12 12:01:45;;;;;;;;;;;27.90;88.00;;;;;;4149256;28;19988;-56
2022/08/12 12:04:04;;;;;;;;;;;28.00;89.00;;;;;;4142132;28;19984;-57
2022/08/12 12:06:07;;;;;;;;;;;28.70;88.20;;;;;;4147445;28;19921;-57
2022/08/12 12:08:18;;;;;;;;;;;29.00;87.30;;;;;;4148358;28;19932;-57
2022/08/12 12:10:40;;;;;;;;;;;29.50;88.60;;;;;;4149291;28;19927;-58
2022/08/12 12:12:42;;;;;;;;;;;29.90;88.00;;;;;;4148430;28;20398;-58
2022/08/12 12:14:50;;;;;;;;;;;29.80;87.20;;;;;;4148384;28;20374;-58
2022/08/12 12:16:56;;;;;;;;;;;29.80;85.90;;;;;;4149100;28;19976;-58
2022/08/12 12:18:58;;;;;;;;;;;29.70;85.00;;;;;;4148418;28;19944;-58
2022/08/12 12:21:02;;;;;;;;;;;29.40;86.60;;;;;;4147935;28;19921;-58
2022/08/12 12:23:04;;;;;;;;;;;29.60;85.10;;;;;;4147074;28;19960;-58
2022/08/12 12:25:07;;;;;;;;;;;29.50;83.20;;;;;;4145827;28;19925;-58
2022/08/12 12:27:16;;;;;;;;;;;29.70;83.60;;;;;;4144744;28;19921;-57
2022/08/12 12:29:20;;;;;;;;;;;29.90;83.90;;;;;;4144836;28;19929;-57
2022/08/12 12:31:42;;;;;;;;;;;30.30;85.00;;;;;;4138810;28;20362;-57
2022/08/12 12:34:03;;;;;;;;;;;30.30;86.50;;;;;;4147392;28;19921;-58
2022/08/12 12:36:06;;;;;;;;;;;30.10;85.20;;;;;;4134857;28;20427;-57
2022/08/12 12:38:23;;;;;;;;;;;30.10;85.20;;;;;;4140205;28;19929;-56
2022/08/12 12:40:27;;;;;;;;;;;30.00;84.80;;;;;;4147876;28;19924;-57
2022/08/12 12:42:30;;;;;;;;;;;29.80;84.20;;;;;;4162582;28;19921;-57
2022/08/12 12:44:47;;;;;;;;;;;29.70;84.50;;;;;;4139692;28;19921;-57
2022/08/12 12:46:54;;;;;;;;;;;30.00;84.80;;;;;;4142757;28;20015;-57
2022/08/12 12:48:56;;;;;;;;;;;29.80;84.60;;;;;;4145544;28;19921;-57
2022/08/12 12:51:16;;;;;;;;;;;29.90;83.90;;;;;;4147670;28;20296;-57
2022/08/12 12:53:39;;;;;;;;;;;30.10;85.10;;;;;;4142734;28;20301;-57
2022/08/12 12:56:01;;;;;;;;;;;30.10;83.10;;;;;;4151204;28;19921;-57
2022/08/12 12:58:04;;;;;;;;;;;29.90;84.30;;;;;;4136936;28;19928;-58
2022/08/12 13:00:16;;;;;;;;;;;29.30;83.00;;;;;;4137100;28;19929;-57
2022/08/12 13:02:18;;;;;;;;;;;29.20;82.70;;;;;;4144077;28;19925;-57
2022/08/12 13:04:33;;;;;;;;;;;29.40;83.30;;;;;;4132768;28;19928;-56
2022/08/12 13:06:35;;;;;;;;;;;29.80;83.70;;;;;;4138833;28;19964;-57
2022/08/12 13:08:39;;;;;;;;;;;30.00;84.80;;;;;;4137854;28;19933;-58
2022/08/12 13:10:41;;;;;;;;;;;30.20;80.80;;;;;;4133577;28;19938;-57
2022/08/12 13:12:51;;;;;;;;;;;30.00;80.60;;;;;;4142048;28;20405;-57
2022/08/12 13:14:53;;;;;;;;;;;29.80;81.20;;;;;;4147910;28;19925;-57
2022/08/12 13:16:55;;;;;;;;;;;29.60;79.10;;;;;;4148141;28;19929;-57
2022/08/12 13:18:58;;;;;;;;;;;29.40;81.50;;;;;;4135170;28;19926;-57
2022/08/12 13:21:01;;;;;;;;;;;29.50;81.00;;;;;;4143545;28;19925;-56
2022/08/12 13:23:03;;;;;;;;;;;29.70;80.70;;;;;;4136340;28;19928;-58
2022/08/12 13:25:07;;;;;;;;;;;29.80;80.40;;;;;;4145074;28;20316;-58
2022/08/12 13:27:09;;;;;;;;;;;29.70;80.50;;;;;;4147648;28;20007;-57
2022/08/12 13:29:13;;;;;;;;;;;29.80;79.00;;;;;;4148603;28;19983;-57
2022/08/12 13:31:15;;;;;;;;;;;30.10;79.90;;;;;;4148373;28;19925;-59
2022/08/12 13:33:21;;;;;;;;;;;30.20;80.00;;;;;;4146270;28;19931;-56
2022/08/12 13:35:35;;;;;;;;;;;29.80;77.70;;;;;;4140719;28;19973;-58
2022/08/12 13:37:57;;;;;;;;;;;29.70;78.30;;;;;;4143163;28;19922;-58
2022/08/12 13:39:59;;;;;;;;;;;30.00;79.50;;;;;;4147333;28;19925;-57
2022/08/12 13:42:01;;;;;;;;;;;30.40;80.20;;;;;;4148146;28;19922;-57
2022/08/12 13:44:04;;;;;;;;;;;30.50;75.60;;;;;;4147474;28;19921;-59
2022/08/12 13:46:08;;;;;;;;;;;30.60;79.90;;;;;;4135854;28;19984;-57
2022/08/12 13:48:13;;;;;;;;;;;30.50;76.60;;;;;;4146346;28;19957;-59
2022/08/12 13:50:14;;;;;;;;;;;30.40;76.80;;;;;;4145109;28;19922;-57
2022/08/12 13:52:17;;;;;;;;;;;30.30;76.40;;;;;;4157386;28;19921;-57
2022/08/12 13:54:20;;;;;;;;;;;30.60;76.60;;;;;;4154624;28;19968;-57
2022/08/12 13:56:25;;;;;;;;;;;30.80;80.00;;;;;;4140180;28;19929;-57
2022/08/12 13:58:30;;;;;;;;;;;30.60;75.70;;;;;;4160574;28;20388;-57
2022/08/12 14:00:35;;;;;;;;;;;30.70;75.20;;;;;;4149474;28;19921;-59
2022/08/12 14:02:39;;;;;;;;;;;31.00;77.80;;;;;;4148442;28;19926;-57